Time;durP1;ratioP1;P1;durP2;ratioP2;P2;SDS_P1;SDS_P2;PMS_P1;PMS_P2;Temp;Humidity;BMP_temperature;BMP_pressure;BME280_temperature;BME280_humidity;BME280_pressure;Samples;Min_cycle;Max_cycle;Signal;HPM_P1;HPM_P2
2022/09/26 00:01:03;;;;;;;5.47;3.78;;;14.70;99.90;;;;;;5032124;28;20045;-66
2022/09/26 00:04:45;;;;;;;8.43;4.90;;;14.60;99.90;;;;;;5031603;28;20048;-66
2022/09/26 00:07:50;;;;;;;12.20;5.07;;;14.60;99.90;;;;;;5031766;28;20076;-67
2022/09/26 00:14:41;;;;;;;7.47;4.65;;;14.60;99.90;;;;;;5031331;28;20052;-66
2022/09/26 00:17:45;;;;;;;5.85;4.38;;;14.50;99.90;;;;;;5031616;28;20048;-66
2022/09/26 00:20:50;;;;;;;8.23;4.68;;;14.40;99.90;;;;;;5031658;28;20044;-66
2022/09/26 00:24:13;;;;;;;12.15;5.40;;;14.40;99.90;;;;;;5030911;28;20040;-66
2022/09/26 00:27:55;;;;;;;6.30;4.50;;;14.50;99.90;;;;;;5031042;28;20036;-66
2022/09/26 00:31:05;;;;;;;12.18;4.15;;;14.60;99.90;;;;;;5030839;28;20048;-66
2022/09/26 00:34:29;;;;;;;7.63;4.65;;;14.70;99.90;;;;;;5030996;28;20052;-66
2022/09/26 00:37:32;;;;;;;8.23;4.82;;;14.70;99.90;;;;;;5030450;28;20052;-67
2022/09/26 00:40:36;;;;;;;6.95;4.60;;;16.60;99.90;;;;;;5031231;28;20052;-66
2022/09/26 00:44:18;;;;;;;7.40;5.65;;;16.20;99.90;;;;;;5030074;28;20503;-66
2022/09/26 00:47:43;;;;;;;10.07;6.30;;;14.80;99.90;;;;;;5030533;28;20048;-66
2022/09/26 00:51:25;;;;;;;7.15;5.32;;;14.80;99.90;;;;;;5031144;28;20255;-66
2022/09/26 00:54:50;;;;;;;8.57;5.53;;;14.90;99.90;;;;;;4988706;28;1227121;-67
2022/09/26 00:58:11;;;;;;;8.80;5.53;;;14.90;99.90;;;;;;5031838;28;20041;-67
2022/09/26 01:05:19;;;;;;;9.95;6.05;;;15.00;99.90;;;;;;5031503;28;20044;-67
2022/09/26 01:08:28;;;;;;;6.05;5.10;;;14.90;99.90;;;;;;5031721;28;20101;-67
2022/09/26 01:15:15;;;;;;;8.13;5.80;;;15.00;99.90;;;;;;5030344;28;20057;-67
2022/09/26 01:18:20;;;;;;;8.40;6.20;;;15.00;99.90;;;;;;5031667;28;20089;-67
2022/09/26 01:25:46;;;;;;;12.27;7.20;;;15.10;99.90;;;;;;5031292;28;20380;-67
2022/09/26 01:29:12;;;;;;;8.45;6.07;;;15.00;99.90;;;;;;5031665;28;20041;-67
2022/09/26 01:32:56;;;;;;;6.40;4.88;;;15.00;99.90;;;;;;5030365;28;20103;-67
2022/09/26 01:40:16;;;;;;;9.48;6.10;;;14.90;99.90;;;;;;5011772;28;20049;-67
2022/09/26 01:43:46;;;;;;;8.77;6.72;;;14.90;99.90;;;;;;5030282;28;20056;-66
2022/09/26 01:48:03;;;;;;;9.20;6.47;;;14.90;99.90;;;;;;5031231;28;20045;-67
2022/09/26 01:51:09;;;;;;;12.55;6.15;;;14.90;99.90;;;;;;5030515;28;20048;-66
2022/09/26 01:58:29;;;;;;;7.85;5.97;;;14.80;99.90;;;;;;5030812;28;20044;-67
2022/09/26 02:01:54;;;;;;;8.02;6.25;;;14.70;99.90;;;;;;5030093;28;20045;-67
2022/09/26 02:08:55;;;;;;;8.00;5.88;;;14.70;99.90;;;;;;5030500;28;20052;-66
2022/09/26 02:12:05;;;;;;;7.95;5.40;;;14.70;99.90;;;;;;5030075;28;20052;-67
2022/09/26 02:15:30;;;;;;;7.72;5.80;;;14.80;99.90;;;;;;5029394;28;20519;-67
2022/09/26 02:18:52;;;;;;;11.20;7.30;;;14.70;99.90;;;;;;5030580;28;20487;-67
2022/09/26 02:22:00;;;;;;;9.80;7.40;;;14.70;99.90;;;;;;5029161;28;20395;-66
2022/09/26 02:25:05;;;;;;;10.93;7.15;;;14.60;99.90;;;;;;5028931;28;20507;-67
2022/09/26 02:28:27;;;;;;;8.75;6.93;;;14.60;99.90;;;;;;5029827;28;20048;-66
2022/09/26 02:32:04;;;;;;;182.00;13.13;;;14.60;99.90;;;;;;5029632;28;20044;-66
2022/09/26 02:42:56;;;;;;;522.70;21.95;;;14.50;99.90;;;;;;5029927;28;20037;-67
2022/09/26 02:46:38;;;;;;;284.17;14.07;;;14.50;99.90;;;;;;5029337;28;20052;-67
2022/09/26 02:49:57;;;;;;;117.97;10.68;;;14.40;99.90;;;;;;5029203;28;20049;-66
2022/09/26 02:53:38;;;;;;;231.10;14.07;;;14.30;99.90;;;;;;5029049;28;20049;-66
2022/09/26 02:57:09;;;;;;;37.53;7.05;;;14.30;99.90;;;;;;5029290;28;20056;-66
2022/09/26 03:00:18;;;;;;;;;;;14.30;99.90;;;;;;5029498;28;20044;-67
2022/09/26 03:04:13;;;;;;;131.02;9.98;;;14.30;99.90;;;;;;5029930;28;19924;-66
2022/09/26 03:07:55;;;;;;;15.57;6.00;;;14.30;99.90;;;;;;5023250;28;20057;-66
2022/09/26 03:11:04;;;;;;;35.78;5.70;;;14.30;99.90;;;;;;5029097;28;20040;-67
2022/09/26 03:18:13;;;;;;;12.25;4.60;;;14.30;99.90;;;;;;5029870;28;20052;-66
2022/09/26 03:21:17;;;;;;;53.85;6.85;;;14.40;99.90;;;;;;5028481;28;20530;-66
2022/09/26 03:24:23;;;;;;;78.80;8.57;;;14.40;99.90;;;;;;5028510;28;20045;-67
2022/09/26 03:27:28;;;;;;;40.17;7.93;;;14.40;99.90;;;;;;5029058;28;20048;-67
2022/09/26 03:30:33;;;;;;;10.43;7.45;;;14.40;99.90;;;;;;5028971;28;20044;-66
2022/09/26 03:33:56;;;;;;;11.13;7.60;;;14.30;99.90;;;;;;5029183;28;20041;-66
2022/09/26 03:36:59;;;;;;;10.48;6.97;;;14.30;99.90;;;;;;5029422;28;20040;-67
2022/09/26 03:40:06;;;;;;;11.88;7.30;;;14.40;99.90;;;;;;5028805;28;20380;-67
2022/09/26 03:43:42;;;;;;;13.18;6.82;;;14.40;99.90;;;;;;5028860;28;20502;-67
2022/09/26 03:46:47;;;;;;;13.70;6.10;;;14.50;99.90;;;;;;5028914;28;20048;-66
2022/09/26 03:50:10;;;;;;;10.55;6.97;;;14.60;99.90;;;;;;5029218;28;20044;-66
2022/09/26 03:53:14;;;;;;;9.82;6.43;;;14.70;99.90;;;;;;5028525;28;20388;-66
2022/09/26 03:56:19;;;;;;;10.38;6.78;;;14.50;99.90;;;;;;5029430;28;20495;-66
2022/09/26 03:59:42;;;;;;;9.70;6.82;;;14.70;99.90;;;;;;5028526;28;20404;-66
2022/09/26 04:02:48;;;;;;;15.32;7.00;;;14.70;99.90;;;;;;5029557;28;20044;-67
2022/09/26 04:06:18;;;;;;;9.45;6.15;;;14.70;99.90;;;;;;5043629;28;20044;-66
2022/09/26 04:09:23;;;;;;;9.63;7.10;;;14.70;99.90;;;;;;5032024;28;20036;-66
2022/09/26 04:15:56;;;;;;;11.93;7.70;;;14.70;99.90;;;;;;5032333;28;20041;-66
2022/09/26 04:19:02;;;;;;;6.30;5.38;;;14.70;99.90;;;;;;5032470;28;20052;-66
2022/09/26 04:22:26;;;;;;;11.25;6.50;;;14.60;99.90;;;;;;5032050;28;20045;-66
2022/09/26 04:25:30;;;;;;;9.18;5.57;;;14.50;99.90;;;;;;5031418;28;20036;-66
2022/09/26 04:28:56;;;;;;;8.18;6.20;;;14.50;99.90;;;;;;5031949;28;20040;-66
2022/09/26 04:32:25;;;;;;;8.63;6.88;;;14.50;99.90;;;;;;5028411;28;20044;-65
2022/09/26 04:36:03;;;;;;;10.53;6.80;;;14.50;99.90;;;;;;5006067;28;20048;-67
2022/09/26 04:39:44;;;;;;;11.02;6.65;;;14.50;99.90;;;;;;5032517;28;20056;-67
2022/09/26 04:42:48;;;;;;;8.45;6.20;;;14.50;99.90;;;;;;5030276;28;20418;-67
2022/09/26 04:46:31;;;;;;;8.38;6.35;;;14.50;99.90;;;;;;5030839;28;20503;-67
2022/09/26 04:49:53;;;;;;;7.85;6.32;;;14.70;99.90;;;;;;5032716;28;20044;-67
2022/09/26 04:53:18;;;;;;;15.02;6.78;;;14.60;99.90;;;;;;5031296;28;20408;-66
2022/09/26 04:56:41;;;;;;;11.73;6.43;;;14.60;99.90;;;;;;5032957;28;20064;-67
2022/09/26 04:59:45;;;;;;;7.90;6.20;;;14.50;99.90;;;;;;5031936;28;20044;-67
2022/09/26 05:03:09;;;;;;;12.13;7.93;;;14.40;99.90;;;;;;5031390;28;20056;-66
2022/09/26 05:06:16;;;;;;;22.23;8.25;;;14.30;99.90;;;;;;5031615;28;20392;-66
2022/09/26 05:13:20;;;;;;;93.13;7.13;;;14.00;99.90;;;;;;5032008;28;20045;-67
2022/09/26 05:16:28;;;;;;;9.05;4.72;;;13.90;99.90;;;;;;5031768;28;20052;-66
2022/09/26 05:19:52;;;;;;;14.20;4.57;;;13.90;99.90;;;;;;5031541;28;20065;-67
2022/09/26 05:27:06;;;;;;;7.40;5.90;;;13.90;99.90;;;;;;5032074;28;20053;-67
2022/09/26 05:30:30;;;;;;;11.35;8.27;;;14.00;99.90;;;;;;5032694;28;20040;-66
2022/09/26 05:33:36;;;;;;;12.18;9.35;;;14.10;99.90;;;;;;5030969;28;20052;-67
2022/09/26 05:36:42;;;;;;;11.65;8.45;;;14.20;99.90;;;;;;5031644;28;20052;-66
2022/09/26 05:43:30;;;;;;;;;;;14.40;99.90;;;;;;5031551;28;20061;-67
2022/09/26 05:50:15;;;;;;;12.77;7.80;;;14.50;99.90;;;;;;5031201;28;20045;-66
2022/09/26 05:53:20;;;;;;;9.63;7.10;;;14.50;99.90;;;;;;5029677;28;20546;-66
2022/09/26 05:56:25;;;;;;;10.20;6.75;;;14.60;99.90;;;;;;5019691;28;20052;-67
2022/09/26 05:59:47;;;;;;;9.93;6.30;;;14.60;99.90;;;;;;5031101;28;20048;-66
2022/09/26 06:03:49;;;;;;;9.93;6.40;;;14.80;99.90;;;;;;5028660;28;20530;-67
2022/09/26 06:07:00;;;;;;;7.32;5.97;;;15.00;99.90;;;;;;5026242;28;20037;-67
2022/09/26 06:10:05;;;;;;;8.65;5.28;;;15.40;99.90;;;;;;5027488;28;20040;-66
2022/09/26 06:13:15;;;;;;;6.32;3.60;;;16.80;99.90;;;;;;5025911;28;20040;-67
2022/09/26 06:16:39;;;;;;;4.38;2.80;;;18.70;99.90;;;;;;5025541;28;20053;-67
2022/09/26 06:19:44;;;;;;;4.70;2.90;;;18.80;99.90;;;;;;5027599;28;20049;-67
2022/09/26 06:22:48;;;;;;;7.07;2.80;;;18.20;99.90;;;;;;5026971;28;20052;-67
2022/09/26 06:29:15;;;;;;;11.05;3.70;;;17.60;99.90;;;;;;5035562;28;20033;-66
2022/09/26 06:32:19;;;;;;;3.78;3.38;;;17.00;99.90;;;;;;5023999;28;20507;-66
2022/09/26 06:36:04;;;;;;;13.82;4.13;;;17.30;99.90;;;;;;5022861;28;20044;-66
2022/09/26 06:39:13;;;;;;;246.93;14.18;;;17.70;99.90;;;;;;5029797;28;20048;-67
2022/09/26 06:42:37;;;;;;;147.18;8.88;;;17.50;99.90;;;;;;5023997;28;20507;-66
2022/09/26 06:45:56;;;;;;;206.70;11.57;;;17.60;99.90;;;;;;5027271;28;20052;-67
2022/09/26 06:49:11;;;;;;;131.68;9.77;;;17.80;99.90;;;;;;5024298;28;20495;-66
2022/09/26 06:52:20;;;;;;;84.65;7.55;;;17.80;99.90;;;;;;5024722;28;20049;-66
2022/09/26 06:58:48;;;;;;;57.72;8.30;;;17.40;99.90;;;;;;5028927;28;20040;-66
2022/09/26 07:02:11;;;;;;;131.70;9.55;;;17.20;99.90;;;;;;5028140;28;20036;-66
2022/09/26 07:05:30;;;;;;;85.55;9.38;;;17.30;99.90;;;;;;5026510;28;20060;-66
2022/09/26 07:08:36;;;;;;;28.05;8.35;;;17.30;99.90;;;;;;5028747;28;20048;-66
2022/09/26 07:11:59;;;;;;;104.65;9.93;;;17.50;99.90;;;;;;5025758;28;20033;-66
2022/09/26 07:15:04;;;;;;;25.08;6.72;;;17.70;99.90;;;;;;5023338;28;20495;-66
2022/09/26 07:18:10;;;;;;;51.08;7.53;;;17.80;99.90;;;;;;5022100;28;20388;-66
2022/09/26 07:21:53;;;;;;;12.85;7.55;;;18.00;99.90;;;;;;5023139;28;20048;-66
2022/09/26 07:25:09;;;;;;;12.93;8.68;;;17.50;99.90;;;;;;5026426;28;20319;-66
2022/09/26 07:28:33;;;;;;;19.50;8.63;;;17.60;99.90;;;;;;5029102;28;20368;-66
2022/09/26 07:31:38;;;;;;;13.55;9.98;;;17.60;99.90;;;;;;5027712;28;20040;-69
2022/09/26 07:34:42;;;;;;;16.17;12.07;;;17.30;99.90;;;;;;5027021;28;20040;-66
2022/09/26 07:37:51;;;;;;;17.42;11.07;;;17.20;99.90;;;;;;5027372;28;20944;-65
2022/09/26 07:40:57;;;;;;;12.45;8.52;;;17.30;99.90;;;;;;5042763;28;20049;-67
2022/09/26 07:51:10;;;;;;;;;;;17.70;99.90;;;;;;5031970;28;20036;-66
2022/09/26 08:01:46;;;;;;;9.43;5.75;;;18.20;99.90;;;;;;5023865;28;20044;-66
2022/09/26 08:05:18;;;;;;;8.38;5.53;;;18.50;99.90;;;;;;5031261;28;20049;-67
2022/09/26 08:08:23;;;;;;;8.35;5.60;;;18.90;99.90;;;;;;5031577;28;20033;-67
2022/09/26 08:11:40;;;;;;;8.98;5.07;;;19.50;99.90;;;;;;5027536;28;20041;-67
2022/09/26 08:14:57;;;;;;;8.45;4.82;;;20.20;99.90;;;;;;5029571;28;20048;-67
2022/09/26 08:19:16;;;;;;;4.57;3.15;;;21.90;99.90;;;;;;5027303;28;21132;-67
2022/09/26 08:22:21;;;;;;;3.78;2.55;;;23.90;99.90;;;;;;5032228;28;20044;-67
2022/09/26 08:25:46;;;;;;;4.10;2.65;;;23.50;99.90;;;;;;5024797;28;20048;-67
2022/09/26 08:29:11;;;;;;;7.50;3.80;;;22.80;99.90;;;;;;5026478;28;20045;-67
2022/09/26 08:32:17;;;;;;;6.95;3.58;;;23.20;99.90;;;;;;5026772;28;20044;-68
2022/09/26 08:35:21;;;;;;;8.77;2.72;;;22.40;99.90;;;;;;5029062;28;20036;-67
2022/09/26 08:43:18;;;;;;;3.95;2.25;;;27.00;99.90;;;;;;5007938;28;20053;-68
2022/09/26 08:47:17;;;;;;;3.85;2.47;;;26.80;99.90;;;;;;4951112;28;20051;-66
2022/09/26 08:51:12;;;;;;;3.28;1.45;;;24.90;99.90;;;;;;4967376;28;20044;-67
2022/09/26 08:54:19;;;;;;;6.13;2.83;;;23.70;99.90;;;;;;5028203;28;20044;-67
2022/09/26 08:57:31;;;;;;;5.45;2.72;;;23.90;99.90;;;;;;5034400;28;20040;-67
2022/09/26 09:00:39;;;;;;;5.63;2.60;;;21.60;99.90;;;;;;5029834;28;20048;-66
2022/09/26 09:03:50;;;;;;;;;;;21.30;99.90;;;;;;5032237;28;20056;-67
2022/09/26 09:07:09;;;;;;;5.30;2.80;;;21.10;99.90;;;;;;5027026;28;19920;-67
2022/09/26 09:10:17;;;;;;;3.55;1.60;;;21.50;99.90;;;;;;5028313;28;20037;-66
2022/09/26 09:14:12;;;;;;;4.78;2.70;;;22.30;99.90;;;;;;5028655;28;20044;-67
2022/09/26 09:22:11;;;;;;;8.13;3.42;;;21.00;99.90;;;;;;5029606;28;20044;-67
2022/09/26 09:25:52;;;;;;;2.50;1.80;;;21.60;99.90;;;;;;5029048;28;20049;-67
2022/09/26 09:29:16;;;;;;;1.77;1.30;;;22.90;99.90;;;;;;5037538;28;20049;-67
2022/09/26 09:33:13;;;;;;;5.28;1.50;;;22.40;99.90;;;;;;5036907;28;20052;-67
2022/09/26 09:40:45;;;;;;;1.83;1.27;;;23.10;99.90;;;;;;5030389;28;20518;-68
2022/09/26 09:44:33;;;;;;;3.58;1.20;;;23.90;99.90;;;;;;5014404;28;20048;-66
2022/09/26 09:51:46;;;;;;;2.90;1.48;;;22.40;99.90;;;;;;5027818;28;20064;-67
2022/09/26 09:59:02;;;;;;;1.52;1.30;;;21.90;99.90;;;;;;5019467;28;20048;-67
2022/09/26 10:02:31;;;;;;;5.00;1.17;;;22.60;99.90;;;;;;5020364;28;20045;-67
2022/09/26 10:06:08;;;;;;;1.88;0.82;;;25.40;99.90;;;;;;5036374;28;20041;-66
2022/09/26 10:09:28;;;;;;;2.20;1.13;;;26.60;99.90;;;;;;5027402;28;20041;-67
2022/09/26 10:12:59;;;;;;;1.40;0.95;;;29.30;99.90;;;;;;5027758;28;20057;-66
2022/09/26 10:17:00;;;;;;;1.52;1.02;;;29.90;99.90;;;;;;5027151;28;20041;-67
2022/09/26 10:20:09;;;;;;;2.58;1.23;;;31.10;97.50;;;;;;5032242;28;20049;-66
2022/09/26 10:23:30;;;;;;;2.17;1.10;;;31.80;98.00;;;;;;5028534;28;20044;-66
2022/09/26 10:26:36;;;;;;;2.95;1.30;;;27.80;99.10;;;;;;5037917;28;20036;-66
2022/09/26 10:30:18;;;;;;;2.22;1.48;;;26.60;99.90;;;;;;5029035;28;20041;-66
2022/09/26 10:33:28;;;;;;;2.55;1.15;;;25.50;99.90;;;;;;5039263;28;20052;-67
2022/09/26 10:37:23;;;;;;;3.88;1.27;;;26.70;99.90;;;;;;5029053;28;20396;-66
2022/09/26 10:40:47;;;;;;;3.25;1.35;;;28.20;98.90;;;;;;5028816;28;20056;-66
2022/09/26 10:43:55;;;;;;;8.35;1.30;;;28.60;99.90;;;;;;5026182;28;20535;-66
2022/09/26 10:47:45;;;;;;;2.83;1.50;;;27.50;98.50;;;;;;5020032;28;20044;-66
2022/09/26 10:51:08;;;;;;;5.43;2.95;;;27.10;99.80;;;;;;5026739;28;20041;-65
2022/09/26 10:54:44;;;;;;;5.00;3.08;;;27.00;99.90;;;;;;5029714;28;20112;-66
2022/09/26 10:57:51;;;;;;;3.97;2.00;;;26.90;99.90;;;;;;5026226;28;20045;-66
2022/09/26 11:01:25;;;;;;;4.68;2.53;;;27.70;99.70;;;;;;5029484;28;20041;-66
2022/09/26 11:08:12;;;;;;;6.35;1.80;;;29.30;99.20;;;;;;5024894;28;20052;-66
2022/09/26 11:11:57;;;;;;;2.20;1.40;;;27.90;99.60;;;;;;5024339;28;20041;-67
2022/09/26 11:15:12;;;;;;;3.67;1.30;;;30.60;97.40;;;;;;5032644;28;20045;-66
2022/09/26 11:18:44;;;;;;;5.65;1.70;;;30.60;94.70;;;;;;5027855;28;20508;-66
2022/09/26 11:22:10;;;;;;;2.80;1.02;;;31.20;94.80;;;;;;5031575;28;20035;-66
2022/09/26 11:25:31;;;;;;;1.80;1.00;;;33.70;92.90;;;;;;5032360;28;20052;-67
2022/09/26 11:29:00;;;;;;;1.42;1.00;;;34.80;92.00;;;;;;5033630;28;20040;-64
2022/09/26 11:32:43;;;;;;;2.05;1.15;;;36.50;91.00;;;;;;5033169;28;20044;-65
2022/09/26 11:36:25;;;;;;;3.28;1.05;;;37.50;87.70;;;;;;5018922;28;20052;-64
2022/09/26 11:39:49;;;;;;;1.80;0.73;;;37.60;86.20;;;;;;5022494;28;20041;-65
2022/09/26 11:43:24;;;;;;;3.15;0.90;;;37.50;85.00;;;;;;5031304;28;20048;-65
2022/09/26 11:50:50;;;;;;;2.47;0.82;;;38.00;81.40;;;;;;5044650;28;20065;-66
2022/09/26 11:54:39;;;;;;;2.08;1.10;;;35.90;80.00;;;;;;5031300;28;20037;-66
2022/09/26 11:57:48;;;;;;;3.28;1.30;;;33.20;86.40;;;;;;5032254;28;20060;-66
2022/09/26 12:01:15;;;;;;;2.20;1.17;;;32.20;90.50;;;;;;5026674;28;20036;-67
2022/09/26 12:04:57;;;;;;;2.10;1.00;;;33.90;89.10;;;;;;5028045;28;20044;-65
2022/09/26 12:08:34;;;;;;;2.05;0.90;;;36.80;85.40;;;;;;5029349;28;20048;-67
2022/09/26 12:11:38;;;;;;;1.77;1.02;;;37.00;83.20;;;;;;5029264;28;20309;-65
2022/09/26 12:15:28;;;;;;;2.22;0.95;;;38.10;81.80;;;;;;5028598;28;20040;-66
2022/09/26 12:26:16;;;;;;;1.75;1.00;;;41.60;75.70;;;;;;5031514;28;20045;-67
2022/09/26 12:29:20;;;;;;;3.60;0.93;;;42.60;72.60;;;;;;5030915;28;20511;-66
2022/09/26 12:32:39;;;;;;;1.77;0.85;;;42.50;71.40;;;;;;5032844;28;20396;-67
2022/09/26 12:35:57;;;;;;;0.80;0.60;;;42.10;68.70;;;;;;5021336;28;20054;-66
2022/09/26 12:39:20;;;;;;;1.05;0.77;;;41.30;70.60;;;;;;5030484;28;20048;-66
2022/09/26 12:43:04;;;;;;;2.38;0.70;;;38.10;71.50;;;;;;5022168;28;20048;-65
2022/09/26 12:50:13;;;;;;;1.83;1.00;;;34.30;76.20;;;;;;5030081;28;20492;-65
2022/09/26 12:53:39;;;;;;;1.55;1.00;;;32.50;78.80;;;;;;5027851;28;20056;-64
2022/09/26 12:57:03;;;;;;;2.47;1.17;;;31.40;83.30;;;;;;5027881;28;20048;-65
2022/09/26 13:00:22;;;;;;;6.63;1.40;;;30.30;84.30;;;;;;5030774;28;20041;-65
2022/09/26 13:04:03;;;;;;;1.77;1.20;;;29.60;86.80;;;;;;5029094;28;20050;-65
2022/09/26 13:08:04;;;;;;;1.65;0.90;;;29.10;91.00;;;;;;5026946;28;20503;-64
2022/09/26 13:11:35;;;;;;;1.60;1.10;;;28.80;90.30;;;;;;5023707;28;20053;-65
2022/09/26 13:15:04;;;;;;;1.95;1.40;;;28.80;90.60;;;;;;5026470;28;20381;-65
2022/09/26 13:22:01;;;;;;;3.53;1.33;;;28.80;88.00;;;;;;5027717;28;20057;-65
2022/09/26 13:25:17;;;;;;;1.27;1.02;;;28.70;90.90;;;;;;5029351;28;20115;-65
2022/09/26 13:28:27;;;;;;;2.90;1.35;;;30.10;88.20;;;;;;5026805;28;20037;-65
2022/09/26 13:32:34;;;;;;;2.10;0.95;;;30.60;89.10;;;;;;5025985;28;21293;-65
2022/09/26 13:35:42;;;;;;;1.95;1.10;;;30.80;84.90;;;;;;5024191;28;20053;-64
2022/09/26 13:39:05;;;;;;;2.30;1.30;;;29.80;88.30;;;;;;5029097;28;20052;-64
2022/09/26 13:42:17;;;;;;;2.83;1.25;;;28.60;88.20;;;;;;5025670;28;20048;-65
2022/09/26 13:45:25;;;;;;;4.72;1.38;;;27.80;88.40;;;;;;5026534;28;20048;-65
2022/09/26 13:48:35;;;;;;;1.67;1.30;;;26.90;91.60;;;;;;5028775;28;20044;-64
2022/09/26 13:51:53;;;;;;;2.90;1.30;;;26.40;92.10;;;;;;5028568;28;20048;-64
2022/09/26 13:55:13;;;;;;;2.58;1.45;;;25.60;92.60;;;;;;5026176;28;20044;-64
2022/09/26 13:58:40;;;;;;;2.63;1.55;;;24.40;94.40;;;;;;5029567;28;20280;-64
2022/09/26 14:02:23;;;;;;;4.13;1.73;;;24.30;96.70;;;;;;5028739;28;20388;-66
2022/09/26 14:09:22;;;;;;;4.90;1.40;;;25.20;96.60;;;;;;5028336;28;20511;-66
2022/09/26 14:12:50;;;;;;;2.13;1.20;;;25.40;95.50;;;;;;5028039;28;20036;-66
2022/09/26 14:15:58;;;;;;;2.58;1.60;;;26.20;96.00;;;;;;5025378;28;20036;-66
2022/09/26 14:19:30;;;;;;;5.47;1.33;;;27.80;92.90;;;;;;5027940;28;20040;-66
2022/09/26 14:22:36;;;;;;;4.38;1.30;;;27.80;92.40;;;;;;5030149;28;20413;-65
2022/09/26 14:25:52;;;;;;;2.17;1.15;;;27.30;93.80;;;;;;5030545;28;20044;-66
2022/09/26 14:29:24;;;;;;;5.57;1.73;;;26.40;93.90;;;;;;5027936;28;20036;-66
2022/09/26 14:32:46;;;;;;;4.38;1.55;;;25.80;95.90;;;;;;5029097;28;20049;-65
2022/09/26 14:35:50;;;;;;;3.70;1.35;;;25.00;96.00;;;;;;5027267;28;20460;-65
2022/09/26 14:38:55;;;;;;;2.47;1.80;;;24.70;97.30;;;;;;5026950;28;20048;-65
2022/09/26 14:42:09;;;;;;;2.95;1.80;;;24.60;97.50;;;;;;5026987;28;20057;-65
2022/09/26 14:45:15;;;;;;;4.75;1.83;;;24.40;98.80;;;;;;5028428;28;20417;-66
2022/09/26 14:48:37;;;;;;;4.63;1.85;;;24.60;99.90;;;;;;5028070;28;20049;-66
2022/09/26 14:51:59;;;;;;;;;;;25.70;99.50;;;;;;5029544;28;20392;-66
2022/09/26 14:55:05;;;;;;;5.18;1.83;;;26.30;98.50;;;;;;5023759;28;20360;-66
2022/09/26 14:58:43;;;;;;;3.60;2.03;;;27.00;96.10;;;;;;5028209;28;20040;-66
2022/09/26 15:02:13;;;;;;;5.82;1.50;;;27.00;95.40;;;;;;5027209;28;20400;-65
2022/09/26 15:05:22;;;;;;;4.30;2.15;;;24.30;96.60;;;;;;5026812;28;20048;-66
2022/09/26 15:08:45;;;;;;;5.93;1.90;;;24.10;99.20;;;;;;5027852;28;20052;-65
2022/09/26 15:12:02;;;;;;;5.10;1.95;;;23.80;99.90;;;;;;5031135;28;20184;-66
2022/09/26 15:15:31;;;;;;;4.07;2.53;;;23.70;99.90;;;;;;5029410;28;20052;-66
2022/09/26 15:18:39;;;;;;;5.20;1.80;;;23.60;99.90;;;;;;5028407;28;20393;-66
2022/09/26 15:25:21;;;;;;;4.43;1.98;;;24.40;99.90;;;;;;5023324;28;20085;-66
2022/09/26 15:28:25;;;;;;;4.70;1.80;;;25.20;99.90;;;;;;5027782;28;20393;-66
2022/09/26 15:31:40;;;;;;;3.30;1.88;;;25.10;99.90;;;;;;5029917;28;20411;-66
2022/09/26 15:38:28;;;;;;;5.50;1.80;;;25.40;99.90;;;;;;5028325;28;20121;-66
2022/09/26 15:44:57;;;;;;;6.13;1.45;;;24.20;99.90;;;;;;5018741;28;20380;-65
2022/09/26 15:48:32;;;;;;;7.35;2.08;;;24.00;99.90;;;;;;5031822;28;20522;-65
2022/09/26 15:51:38;;;;;;;2.97;1.40;;;24.00;99.90;;;;;;5030581;28;20045;-65
2022/09/26 15:55:01;;;;;;;4.78;1.27;;;23.90;99.90;;;;;;5028711;28;20044;-65
2022/09/26 15:58:52;;;;;;;3.35;1.50;;;23.60;99.90;;;;;;5029459;28;20041;-65
2022/09/26 16:02:31;;;;;;;4.20;1.67;;;23.30;99.90;;;;;;5032860;28;20052;-66
2022/09/26 16:05:35;;;;;;;3.10;1.40;;;23.10;99.90;;;;;;5033235;28;20036;-66
2022/09/26 16:08:41;;;;;;;3.03;1.58;;;22.90;99.90;;;;;;5033815;28;20041;-65
2022/09/26 16:11:59;;;;;;;5.30;1.40;;;22.70;99.90;;;;;;5033835;28;20049;-65
2022/09/26 16:15:17;;;;;;;5.30;1.83;;;22.50;99.90;;;;;;5033193;28;20048;-65
2022/09/26 16:18:51;;;;;;;7.38;2.05;;;22.20;99.90;;;;;;5033803;28;20044;-66
2022/09/26 16:22:45;;;;;;;4.68;2.00;;;21.90;99.90;;;;;;5033326;28;20044;-65
2022/09/26 16:25:51;;;;;;;4.22;1.80;;;21.60;99.90;;;;;;5033325;28;20499;-65
2022/09/26 16:28:57;;;;;;;9.38;2.38;;;21.40;99.90;;;;;;5033654;28;20057;-65
2022/09/26 16:38:54;;;;;;;4.57;2.30;;;20.80;99.90;;;;;;5033348;28;20044;-64
2022/09/26 16:42:13;;;;;;;4.32;2.42;;;20.60;99.90;;;;;;5033301;28;20599;-65
2022/09/26 16:45:17;;;;;;;5.30;2.10;;;20.40;99.90;;;;;;5032825;28;20048;-65
2022/09/26 16:48:50;;;;;;;3.30;2.00;;;20.10;99.90;;;;;;5033148;28;20499;-65
2022/09/26 16:52:35;;;;;;;5.32;2.08;;;19.90;99.90;;;;;;5033066;28;20053;-65
2022/09/26 16:55:39;;;;;;;5.75;2.33;;;19.70;99.90;;;;;;5032685;28;20053;-65
2022/09/26 16:58:54;;;;;;;4.80;1.77;;;19.50;99.90;;;;;;5033032;28;20052;-65
2022/09/26 17:02:01;;;;;;;5.00;1.88;;;19.30;99.90;;;;;;5032599;28;20045;-65
2022/09/26 17:05:31;;;;;;;7.75;1.77;;;19.20;99.90;;;;;;5032140;28;20515;-65
2022/09/26 17:08:34;;;;;;;4.38;1.90;;;19.00;99.90;;;;;;5031897;28;20056;-66
2022/09/26 17:15:44;;;;;;;10.00;2.65;;;18.90;99.90;;;;;;5032254;28;20045;-65
2022/09/26 17:18:47;;;;;;;4.60;2.50;;;18.80;99.90;;;;;;5032735;28;20041;-65
2022/09/26 17:21:52;;;;;;;3.95;2.17;;;18.70;99.90;;;;;;5032320;28;20048;-65
2022/09/26 17:24:57;;;;;;;5.75;2.15;;;18.60;99.90;;;;;;5027580;28;20057;-64
2022/09/26 17:28:01;;;;;;;4.15;2.15;;;18.60;99.90;;;;;;5030263;28;20052;-64
2022/09/26 17:31:07;;;;;;;6.95;2.47;;;18.60;99.90;;;;;;5032083;28;20040;-65
2022/09/26 17:34:12;;;;;;;8.07;1.90;;;18.60;99.90;;;;;;5031594;28;20049;-66
2022/09/26 17:37:20;;;;;;;11.65;2.50;;;18.60;99.90;;;;;;5032340;28;20491;-65
2022/09/26 17:40:46;;;;;;;7.68;2.83;;;18.50;99.90;;;;;;5031832;28;20498;-65
2022/09/26 17:43:59;;;;;;;6.22;3.08;;;18.40;99.90;;;;;;5031727;28;20064;-65
2022/09/26 17:47:04;;;;;;;7.07;3.25;;;18.40;99.90;;;;;;5032088;28;20384;-65
2022/09/26 17:50:34;;;;;;;14.48;3.67;;;18.30;99.90;;;;;;5031767;28;20400;-65
2022/09/26 17:53:45;;;;;;;5.43;3.03;;;18.20;99.90;;;;;;5031173;28;20495;-65
2022/09/26 17:57:11;;;;;;;5.70;2.30;;;18.10;99.90;;;;;;5031567;28;20342;-65
2022/09/26 18:00:18;;;;;;;6.20;2.85;;;18.10;99.90;;;;;;5031367;28;20282;-65
2022/09/26 18:03:40;;;;;;;5.95;2.75;;;18.00;99.90;;;;;;5031568;28;20057;-64
2022/09/26 18:06:44;;;;;;;5.10;2.88;;;17.90;99.90;;;;;;5031175;28;20044;-65
2022/09/26 18:10:18;;;;;;;8.18;4.07;;;17.90;99.90;;;;;;5031117;28;20049;-65
2022/09/26 18:13:35;;;;;;;4.40;3.00;;;17.80;99.90;;;;;;5031225;28;20053;-64
2022/09/26 18:20:02;;;;;;;3.58;2.28;;;17.60;99.90;;;;;;5031132;28;20510;-65
2022/09/26 18:23:10;;;;;;;6.82;2.53;;;17.50;99.90;;;;;;5030957;28;20036;-64
2022/09/26 18:26:36;;;;;;;6.75;3.15;;;17.40;99.90;;;;;;5031269;28;20048;-65
2022/09/26 18:33:24;;;;;;;8.88;2.88;;;17.30;99.90;;;;;;5030848;28;20045;-65
2022/09/26 18:36:32;;;;;;;4.28;2.50;;;17.30;99.90;;;;;;5031194;28;20500;-65
2022/09/26 18:39:35;;;;;;;6.05;2.88;;;17.20;99.90;;;;;;5030090;28;20056;-65
2022/09/26 18:43:19;;;;;;;5.25;2.80;;;17.20;99.90;;;;;;5030657;28;20060;-65
2022/09/26 18:46:24;;;;;;;6.53;2.83;;;17.10;99.90;;;;;;5031327;28;20048;-64
2022/09/26 18:49:33;;;;;;;8.07;2.78;;;17.10;99.90;;;;;;5031004;28;20048;-65
2022/09/26 18:52:36;;;;;;;8.85;2.72;;;17.10;99.90;;;;;;5030379;28;20045;-65
2022/09/26 18:59:22;;;;;;;10.52;2.88;;;17.00;99.90;;;;;;5030726;28;20396;-65
2022/09/26 19:03:04;;;;;;;9.05;1.90;;;17.00;99.90;;;;;;5030506;28;20037;-64
2022/09/26 19:06:17;;;;;;;5.43;2.53;;;17.00;99.90;;;;;;5030519;28;20048;-64
2022/09/26 19:09:21;;;;;;;10.57;2.45;;;16.90;99.90;;;;;;5031023;28;20052;-65
2022/09/26 19:12:26;;;;;;;7.50;2.63;;;16.90;99.90;;;;;;5030620;28;20503;-65
2022/09/26 19:16:08;;;;;;;7.35;2.42;;;16.80;99.90;;;;;;5030736;28;20045;-65
2022/09/26 19:19:33;;;;;;;7.28;3.00;;;18.10;99.90;;;;;;5030611;28;20060;-65
2022/09/26 19:22:57;;;;;;;6.15;2.88;;;16.80;99.90;;;;;;5030552;28;20152;-64
2022/09/26 19:26:41;;;;;;;4.38;2.17;;;16.70;99.90;;;;;;5030200;28;20048;-65
2022/09/26 19:30:07;;;;;;;8.48;2.30;;;16.60;99.90;;;;;;5030407;28;20491;-64
2022/09/26 19:33:49;;;;;;;10.73;2.55;;;16.60;99.90;;;;;;5030817;28;20052;-65
2022/09/26 19:36:53;;;;;;;9.18;2.20;;;16.50;99.90;;;;;;5034198;28;20029;-65
2022/09/26 19:40:17;;;;;;;7.57;2.25;;;16.50;99.90;;;;;;5034323;28;20404;-65
2022/09/26 19:43:21;;;;;;;5.43;2.30;;;16.50;99.90;;;;;;5032907;28;20048;-64
2022/09/26 19:46:45;;;;;;;12.30;1.98;;;16.40;99.90;;;;;;5033991;28;20036;-64
2022/09/26 19:53:16;;;;;;;7.03;2.50;;;16.40;99.90;;;;;;5033527;28;20048;-65
2022/09/26 19:56:38;;;;;;;12.43;2.30;;;16.40;99.90;;;;;;5033915;28;20045;-64
2022/09/26 19:59:41;;;;;;;7.75;2.00;;;16.40;99.90;;;;;;5033796;28;20044;-65